createdAt,value
2023-12-26T00:00:31.503Z,4.70
2023-12-26T00:03:19.861Z,4.70
2023-12-26T00:05:48.397Z,6.80
2023-12-26T00:08:15.609Z,4.70
2023-12-26T00:10:43.061Z,6.30
2023-12-26T00:13:10.258Z,4.50
2023-12-26T00:15:37.815Z,4.60
2023-12-26T00:18:05.571Z,4.50
2023-12-26T00:20:33.091Z,4.60
2023-12-26T00:23:00.351Z,4.50
2023-12-26T00:25:27.785Z,5.20
2023-12-26T00:27:55.269Z,4.50
2023-12-26T00:30:23.031Z,4.50
2023-12-26T00:32:52.979Z,4.50
2023-12-26T00:35:20.688Z,4.80
2023-12-26T00:37:47.842Z,5.90
2023-12-26T00:40:15.465Z,4.90
2023-12-26T00:42:43.483Z,4.40
2023-12-26T00:45:11.625Z,4.40
2023-12-26T00:47:38.859Z,4.40
2023-12-26T00:50:06.993Z,6.00
2023-12-26T00:52:34.239Z,4.30
2023-12-26T00:55:01.811Z,6.70
2023-12-26T00:57:29.019Z,5.70
2023-12-26T00:59:56.572Z,5.20
2023-12-26T01:02:23.960Z,6.10
2023-12-26T01:04:51.468Z,6.10
2023-12-26T01:07:18.764Z,6.50
2023-12-26T01:09:46.310Z,5.50
2023-12-26T01:12:14.610Z,5.90
2023-12-26T01:14:43.372Z,4.30
2023-12-26T01:17:11.044Z,4.20
2023-12-26T01:19:39.042Z,4.20
2023-12-26T01:22:06.312Z,4.20
2023-12-26T01:24:34.906Z,4.20
2023-12-26T01:27:02.239Z,5.70
2023-12-26T01:29:30.064Z,4.20
2023-12-26T01:31:58.337Z,4.20
2023-12-26T01:34:25.980Z,5.90
2023-12-26T01:36:53.284Z,5.40
2023-12-26T01:39:21.354Z,4.80
2023-12-26T01:41:49.014Z,4.10
2023-12-26T01:44:16.581Z,2.80
2023-12-26T01:46:44.029Z,4.10
2023-12-26T01:49:12.701Z,4.10
2023-12-26T01:51:43.836Z,4.10
2023-12-26T01:54:12.044Z,4.10
2023-12-26T01:56:39.403Z,4.10
2023-12-26T01:59:08.531Z,6.70
2023-12-26T02:01:36.595Z,6.40
2023-12-26T02:04:04.677Z,4.00
2023-12-26T02:06:33.518Z,4.00
2023-12-26T02:09:01.208Z,6.00
2023-12-26T02:11:28.470Z,4.10
2023-12-26T02:13:56.456Z,4.00
2023-12-26T02:16:26.470Z,3.90
2023-12-26T02:18:56.864Z,3.90
2023-12-26T02:21:24.477Z,3.80
2023-12-26T02:23:56.353Z,6.00
2023-12-26T02:26:25.698Z,4.20
2023-12-26T02:28:54.502Z,6.30
2023-12-26T02:31:22.796Z,4.30
2023-12-26T02:33:50.545Z,4.60
2023-12-26T02:36:18.684Z,4.30
2023-12-26T02:38:46.282Z,3.80
2023-12-26T02:41:13.494Z,3.90
2023-12-26T02:43:41.356Z,6.30
2023-12-26T02:46:08.666Z,6.40
2023-12-26T02:48:37.655Z,4.60
2023-12-26T02:51:05.474Z,5.60
2023-12-26T02:53:32.983Z,4.00
2023-12-26T02:56:00.167Z,4.00
2023-12-26T02:58:28.623Z,3.90
2023-12-26T03:00:55.776Z,5.40
2023-12-26T03:03:23.352Z,4.00
2023-12-26T03:05:50.855Z,4.00
2023-12-26T03:08:18.390Z,4.00
2023-12-26T03:10:46.322Z,4.00
2023-12-26T03:13:13.776Z,4.00
2023-12-26T03:15:40.936Z,4.00
2023-12-26T03:18:08.895Z,4.00
2023-12-26T03:20:36.269Z,4.10
2023-12-26T03:23:06.272Z,4.00
2023-12-26T03:25:33.492Z,4.00
2023-12-26T03:28:00.970Z,4.70
2023-12-26T03:30:28.430Z,6.20
2023-12-26T03:32:56.381Z,6.00
2023-12-26T03:35:23.779Z,4.60
2023-12-26T03:37:51.277Z,4.10
2023-12-26T03:40:18.551Z,4.10
2023-12-26T03:42:47.203Z,4.10
2023-12-26T03:45:15.738Z,4.10
2023-12-26T03:47:43.513Z,4.20
2023-12-26T03:50:11.848Z,4.10
2023-12-26T03:52:41.754Z,4.10
2023-12-26T03:55:09.593Z,4.00
2023-12-26T03:57:38.181Z,4.00
2023-12-26T04:00:06.308Z,4.20
2023-12-26T04:02:42.518Z,4.20
2023-12-26T04:05:12.593Z,4.20
2023-12-26T04:07:40.495Z,4.20
2023-12-26T04:10:08.477Z,4.20
2023-12-26T04:12:37.064Z,4.20
2023-12-26T04:15:05.138Z,4.20
2023-12-26T04:17:32.785Z,4.20
2023-12-26T04:20:00.659Z,5.20
2023-12-26T04:22:28.398Z,6.20
2023-12-26T04:24:55.663Z,4.10
2023-12-26T04:27:23.488Z,5.50
2023-12-26T04:29:51.155Z,6.20
2023-12-26T04:32:18.705Z,5.90
2023-12-26T04:34:45.904Z,4.20
2023-12-26T04:37:13.406Z,4.20
2023-12-26T04:39:40.720Z,4.20
2023-12-26T04:42:10.748Z,4.30
2023-12-26T04:44:38.111Z,4.20
2023-12-26T04:47:05.641Z,4.30
2023-12-26T04:49:34.140Z,4.30
2023-12-26T04:52:01.612Z,4.30
2023-12-26T04:54:30.036Z,4.20
2023-12-26T04:56:57.984Z,4.30
2023-12-26T04:59:25.410Z,6.00
2023-12-26T05:01:53.480Z,6.50
2023-12-26T05:04:20.703Z,4.20
2023-12-26T05:06:48.290Z,4.20
2023-12-26T05:09:17.620Z,4.20
2023-12-26T05:11:45.523Z,4.90
2023-12-26T05:14:12.851Z,4.30
2023-12-26T05:16:45.826Z,6.20
2023-12-26T05:19:13.727Z,4.30
2023-12-26T05:21:41.713Z,5.40
2023-12-26T05:24:09.049Z,4.30
2023-12-26T05:26:44.142Z,4.30
2023-12-26T05:29:12.294Z,4.30
2023-12-26T05:31:39.915Z,4.30
2023-12-26T05:34:09.448Z,4.40
2023-12-26T05:36:38.148Z,4.40
2023-12-26T05:39:05.779Z,4.50
2023-12-26T05:41:34.287Z,5.00
2023-12-26T05:44:02.058Z,5.80
2023-12-26T05:46:30.603Z,4.50
2023-12-26T05:49:00.242Z,4.50
2023-12-26T05:51:28.236Z,4.50
2023-12-26T05:53:55.621Z,4.50
2023-12-26T05:56:23.779Z,4.60
2023-12-26T05:58:50.926Z,4.50
2023-12-26T06:01:19.298Z,6.10
2023-12-26T06:03:46.568Z,6.70
2023-12-26T06:06:15.023Z,4.60
2023-12-26T06:08:42.601Z,4.50
2023-12-26T06:11:10.580Z,4.50
2023-12-26T06:13:38.027Z,4.50
2023-12-26T06:16:06.631Z,4.50
2023-12-26T06:18:35.165Z,4.50
2023-12-26T06:21:02.957Z,6.30
2023-12-26T06:23:32.407Z,4.40
2023-12-26T06:25:59.995Z,4.40
2023-12-26T06:28:27.274Z,6.10
2023-12-26T06:30:54.838Z,6.50
2023-12-26T06:33:22.829Z,6.90
2023-12-26T06:35:52.173Z,4.30
2023-12-26T06:38:19.381Z,4.20
2023-12-26T06:40:46.937Z,4.90
2023-12-26T06:43:16.953Z,4.30
2023-12-26T06:45:45.166Z,4.30
2023-12-26T06:48:12.821Z,4.20
2023-12-26T06:50:40.534Z,6.70
2023-12-26T06:53:13.775Z,6.60
2023-12-26T06:55:42.823Z,6.40
2023-12-26T06:58:12.456Z,3.50
2023-12-26T07:00:40.278Z,6.30
2023-12-26T07:03:10.143Z,6.00
2023-12-26T07:05:38.285Z,6.70
2023-12-26T07:08:06.214Z,6.10
2023-12-26T07:10:33.824Z,4.30
2023-12-26T07:13:01.395Z,5.20
2023-12-26T07:15:29.861Z,6.20
2023-12-26T07:17:59.800Z,6.10
2023-12-26T07:20:27.981Z,5.10
2023-12-26T07:22:55.518Z,6.00
2023-12-26T07:25:23.506Z,5.40
2023-12-26T07:27:50.637Z,4.20
2023-12-26T07:30:18.319Z,5.70
2023-12-26T07:32:46.766Z,6.30
2023-12-26T07:35:15.535Z,6.30
2023-12-26T07:37:42.757Z,4.10
2023-12-26T07:40:11.245Z,4.10
2023-12-26T07:42:38.359Z,4.20
2023-12-26T07:45:06.256Z,4.20
2023-12-26T07:47:35.362Z,4.30
2023-12-26T07:50:04.999Z,6.00
2023-12-26T07:52:33.665Z,4.30
2023-12-26T07:55:01.591Z,6.10
2023-12-26T07:57:28.940Z,4.30
2023-12-26T07:59:56.498Z,4.40
2023-12-26T08:02:23.578Z,6.70
2023-12-26T08:04:51.188Z,5.70
2023-12-26T08:07:18.424Z,4.40
2023-12-26T08:09:46.155Z,4.30
2023-12-26T08:12:13.408Z,6.60
2023-12-26T08:14:41.172Z,5.90
2023-12-26T08:17:08.573Z,6.90
2023-12-26T08:19:36.522Z,5.90
2023-12-26T08:22:04.152Z,4.50
2023-12-26T08:24:31.803Z,4.80
2023-12-26T08:26:59.439Z,5.30
2023-12-26T08:29:27.904Z,5.20
2023-12-26T08:31:55.433Z,5.30
2023-12-26T08:34:23.805Z,6.50
2023-12-26T08:36:51.923Z,7.00
2023-12-26T08:39:20.340Z,6.20
2023-12-26T08:41:49.190Z,7.20
2023-12-26T08:44:24.117Z,7.70
2023-12-26T08:47:09.397Z,5.70
2023-12-26T08:49:45.508Z,7.60
2023-12-26T08:52:15.780Z,5.30
2023-12-26T08:55:09.811Z,5.70
2023-12-26T08:57:57.854Z,5.60
2023-12-26T09:00:27.061Z,5.70
2023-12-26T09:06:06.295Z,6.10
2023-12-26T09:08:44.933Z,6.90
2023-12-26T09:11:33.665Z,5.30
2023-12-26T09:14:01.387Z,7.20
2023-12-26T09:16:29.085Z,7.20
2023-12-26T09:18:58.161Z,7.70
2023-12-26T09:21:51.850Z,6.00
2023-12-26T09:24:19.157Z,6.00
2023-12-26T09:26:46.862Z,8.20
2023-12-26T09:29:14.610Z,6.10
2023-12-26T09:31:42.155Z,7.50
2023-12-26T09:34:09.793Z,8.00
2023-12-26T09:36:37.390Z,6.90
2023-12-26T09:39:04.706Z,7.70
2023-12-26T09:41:32.276Z,7.00
2023-12-26T09:44:00.202Z,7.40
2023-12-26T09:46:32.420Z,6.50
2023-12-26T09:49:14.960Z,7.70
2023-12-26T09:51:47.698Z,6.80
2023-12-26T09:54:17.720Z,7.10
2023-12-26T09:56:47.187Z,7.20
2023-12-26T09:59:16.915Z,6.80
2023-12-26T10:01:45.844Z,8.20
2023-12-26T10:04:16.493Z,9.00
2023-12-26T10:06:44.484Z,6.70
2023-12-26T10:09:11.927Z,8.80
2023-12-26T10:11:46.106Z,8.70
2023-12-26T10:14:27.218Z,7.90
2023-12-26T10:16:57.309Z,7.50
2023-12-26T10:19:25.205Z,8.10
2023-12-26T10:21:54.257Z,9.30
2023-12-26T10:24:22.236Z,9.30
2023-12-26T10:26:50.288Z,8.10
2023-12-26T10:29:18.395Z,7.80
2023-12-26T10:31:46.324Z,8.10
2023-12-26T10:34:18.841Z,9.70
2023-12-26T10:36:48.518Z,9.00
2023-12-26T10:39:18.967Z,9.90
2023-12-26T10:41:49.029Z,8.20
2023-12-26T10:44:17.882Z,8.30
2023-12-26T10:46:46.649Z,8.30
2023-12-26T10:49:35.075Z,8.70
2023-12-26T11:00:22.453Z,8.50
2023-12-26T11:02:49.984Z,8.60
2023-12-26T11:05:17.585Z,8.60
2023-12-26T11:07:45.119Z,8.70
2023-12-26T11:10:12.694Z,10.10
2023-12-26T11:12:40.210Z,9.30
2023-12-26T11:15:07.941Z,8.90
2023-12-26T11:17:35.246Z,9.00
2023-12-26T11:20:02.793Z,10.40
2023-12-26T11:22:31.233Z,9.90
2023-12-26T11:24:58.858Z,10.10
2023-12-26T11:27:28.720Z,9.20
2023-12-26T11:29:56.662Z,9.50
2023-12-26T11:32:26.573Z,9.70
2023-12-26T11:34:54.253Z,10.80
2023-12-26T11:37:21.644Z,7.90
2023-12-26T11:39:52.618Z,10.80
2023-12-26T11:42:20.075Z,10.20
2023-12-26T11:44:47.948Z,10.40
2023-12-26T11:47:15.121Z,9.20
2023-12-26T11:49:42.802Z,10.10
2023-12-26T11:52:10.575Z,9.40
2023-12-26T11:54:41.335Z,9.80
2023-12-26T11:57:10.443Z,9.40
2023-12-26T11:59:37.941Z,11.10
2023-12-26T12:02:06.274Z,9.50
2023-12-26T12:04:33.782Z,10.20
2023-12-26T12:07:13.625Z,10.90
2023-12-26T12:09:42.393Z,9.40
2023-12-26T12:12:09.619Z,9.60
2023-12-26T12:14:37.102Z,9.20
2023-12-26T12:17:12.686Z,9.10
2023-12-26T12:19:45.745Z,10.20
2023-12-26T12:22:24.967Z,9.10
2023-12-26T12:24:52.789Z,8.80
2023-12-26T12:27:19.976Z,10.00
2023-12-26T12:30:00.649Z,10.60
2023-12-26T12:32:32.295Z,8.70
2023-12-26T12:35:18.086Z,8.60
2023-12-26T12:37:49.863Z,8.60
2023-12-26T12:40:17.593Z,10.30
2023-12-26T12:42:44.903Z,8.70
2023-12-26T12:45:12.827Z,9.80
2023-12-26T12:47:40.314Z,9.70
2023-12-26T12:50:08.461Z,9.00
2023-12-26T12:52:35.793Z,8.80
2023-12-26T12:55:03.404Z,10.00
2023-12-26T12:57:30.725Z,8.40
2023-12-26T12:59:58.376Z,8.80
2023-12-26T13:02:25.701Z,8.50
2023-12-26T13:04:53.427Z,10.40
2023-12-26T13:07:20.793Z,10.60
2023-12-26T13:09:48.669Z,9.00
2023-12-26T13:12:16.101Z,8.30
2023-12-26T13:14:47.244Z,8.50
2023-12-26T13:17:16.921Z,8.30
2023-12-26T13:19:44.755Z,8.40
2023-12-26T13:22:19.988Z,9.80
2023-12-26T13:24:51.187Z,8.40
2023-12-26T13:27:25.256Z,8.40
2023-12-26T13:29:52.762Z,8.40
2023-12-26T13:32:19.911Z,8.80
2023-12-26T13:34:48.709Z,8.40
2023-12-26T13:37:15.824Z,10.60
2023-12-26T13:39:43.378Z,8.40
2023-12-26T13:42:10.504Z,10.00
2023-12-26T13:44:38.120Z,9.40
2023-12-26T13:47:05.262Z,10.30
2023-12-26T13:49:33.082Z,8.40
2023-12-26T13:52:00.286Z,9.00
2023-12-26T13:54:27.947Z,10.00
2023-12-26T13:56:55.185Z,9.20
2023-12-26T13:59:23.353Z,10.10
2023-12-26T14:01:50.705Z,10.60
2023-12-26T14:04:18.326Z,10.50
2023-12-26T14:06:48.624Z,8.50
2023-12-26T14:09:16.317Z,8.50
2023-12-26T14:11:43.548Z,9.80
2023-12-26T14:14:11.110Z,8.50
2023-12-26T14:16:38.509Z,8.50
2023-12-26T14:19:06.314Z,8.50
2023-12-26T14:21:33.599Z,10.20
2023-12-26T14:24:01.311Z,10.10
2023-12-26T14:26:30.198Z,8.60
2023-12-26T14:28:59.604Z,8.50
2023-12-26T14:31:29.085Z,8.40
2023-12-26T14:33:56.932Z,8.50
2023-12-26T14:36:24.354Z,9.60
2023-12-26T14:38:51.931Z,8.30
2023-12-26T14:41:19.163Z,9.90
2023-12-26T14:43:46.732Z,9.00
2023-12-26T14:46:16.057Z,10.40
2023-12-26T14:48:43.727Z,8.20
2023-12-26T14:51:11.221Z,8.30
2023-12-26T14:53:38.956Z,8.80
2023-12-26T14:56:06.254Z,10.30
2023-12-26T14:58:33.910Z,8.60
2023-12-26T15:01:01.417Z,7.40
2023-12-26T15:03:30.848Z,9.10
2023-12-26T15:05:58.379Z,8.30
2023-12-26T15:08:26.319Z,9.80
2023-12-26T15:10:55.214Z,8.40
2023-12-26T15:13:33.087Z,9.00
2023-12-26T15:16:04.383Z,9.30
2023-12-26T15:18:32.017Z,8.30
2023-12-26T15:20:59.376Z,8.30
2023-12-26T15:23:27.045Z,9.50
2023-12-26T15:25:54.409Z,9.70
2023-12-26T15:28:21.955Z,8.90
2023-12-26T15:30:49.821Z,10.40
2023-12-26T15:33:17.829Z,8.30
2023-12-26T15:35:45.192Z,8.50
2023-12-26T15:38:13.200Z,8.30
2023-12-26T15:40:40.762Z,8.30
2023-12-26T15:43:08.336Z,10.50
2023-12-26T15:45:35.965Z,8.30
2023-12-26T15:48:04.568Z,9.00
2023-12-26T15:50:33.210Z,7.60
2023-12-26T15:53:01.869Z,8.30
2023-12-26T15:55:29.028Z,8.60
2023-12-26T15:57:56.717Z,8.20
2023-12-26T16:00:24.101Z,9.10
2023-12-26T16:02:51.736Z,10.10
2023-12-26T16:05:19.075Z,9.60
2023-12-26T16:07:46.565Z,9.60
2023-12-26T16:10:13.732Z,8.80
2023-12-26T16:12:44.104Z,8.20
2023-12-26T16:15:11.683Z,9.30
2023-12-26T16:17:42.943Z,8.20
2023-12-26T16:20:12.065Z,8.40
2023-12-26T16:22:40.375Z,9.90
2023-12-26T16:25:08.779Z,9.60
2023-12-26T16:27:37.009Z,8.00
2023-12-26T16:30:05.643Z,9.60
2023-12-26T16:32:33.350Z,8.30
2023-12-26T16:35:05.737Z,8.20
2023-12-26T16:37:33.362Z,9.90
2023-12-26T16:40:00.755Z,8.30
2023-12-26T16:42:30.129Z,10.20
2023-12-26T16:44:58.024Z,9.20
2023-12-26T16:47:25.840Z,8.30
2023-12-26T16:49:55.222Z,10.20
2023-12-26T16:52:22.864Z,8.20
2023-12-26T16:54:51.295Z,9.30
2023-12-26T16:57:19.334Z,9.70
2023-12-26T16:59:48.642Z,8.20
2023-12-26T17:02:16.698Z,8.90
2023-12-26T17:04:45.396Z,9.30
2023-12-26T17:07:12.967Z,9.70
2023-12-26T17:09:41.381Z,8.20
2023-12-26T17:12:10.547Z,8.20
2023-12-26T17:14:38.127Z,9.20
2023-12-26T17:17:06.008Z,8.60
2023-12-26T17:19:33.648Z,9.10
2023-12-26T17:22:01.335Z,10.50
2023-12-26T17:24:28.683Z,8.90
2023-12-26T17:26:57.797Z,8.90
2023-12-26T17:29:25.188Z,8.20
2023-12-26T17:31:58.067Z,8.40
2023-12-26T17:34:25.838Z,8.40
2023-12-26T17:36:55.101Z,10.60
2023-12-26T17:39:22.618Z,10.60
2023-12-26T17:41:50.314Z,8.70
2023-12-26T17:44:18.580Z,8.30
2023-12-26T17:46:46.463Z,8.30
2023-12-26T17:49:14.013Z,8.40
2023-12-26T17:51:41.940Z,9.20
2023-12-26T17:54:09.708Z,8.30
2023-12-26T17:56:37.699Z,8.90
2023-12-26T17:59:05.967Z,10.30
2023-12-26T18:01:33.929Z,10.50
2023-12-26T18:04:01.620Z,8.40
2023-12-26T18:06:31.456Z,8.40
2023-12-26T18:08:59.176Z,8.40
2023-12-26T18:11:27.018Z,10.30
2023-12-26T18:13:54.424Z,9.20
2023-12-26T18:16:22.562Z,10.50
2023-12-26T18:18:50.304Z,9.50
2023-12-26T18:21:18.166Z,10.40
2023-12-26T18:23:45.724Z,8.40
2023-12-26T18:26:18.545Z,10.10
2023-12-26T18:28:45.902Z,10.00
2023-12-26T18:31:15.498Z,9.90
2023-12-26T18:33:43.346Z,8.50
2023-12-26T18:36:11.238Z,8.40
2023-12-26T18:38:38.614Z,8.40
2023-12-26T18:41:06.193Z,8.50
2023-12-26T18:43:34.133Z,8.60
2023-12-26T18:46:02.179Z,9.90
2023-12-26T18:48:29.665Z,9.40
2023-12-26T18:50:59.186Z,8.50
2023-12-26T18:53:26.916Z,10.20
2023-12-26T18:55:54.696Z,8.50
2023-12-26T18:58:21.982Z,9.20
2023-12-26T19:00:50.716Z,10.30
2023-12-26T19:03:18.159Z,9.10
2023-12-26T19:05:46.238Z,10.20
2023-12-26T19:08:13.691Z,9.30
2023-12-26T19:10:41.428Z,7.80
2023-12-26T19:13:08.819Z,9.50
2023-12-26T19:15:39.601Z,7.60
2023-12-26T19:18:09.292Z,6.80
2023-12-26T19:20:39.337Z,7.70
2023-12-26T19:23:07.476Z,9.00
2023-12-26T19:25:42.660Z,9.00
2023-12-26T19:28:10.544Z,7.70
2023-12-26T19:30:41.955Z,8.00
2023-12-26T19:33:09.315Z,8.30
2023-12-26T19:35:36.970Z,9.90
2023-12-26T19:38:05.056Z,7.80
2023-12-26T19:40:33.478Z,7.80
2023-12-26T19:43:01.634Z,8.90
2023-12-26T19:45:31.086Z,7.80
2023-12-26T19:47:59.165Z,8.00
2023-12-26T19:50:27.271Z,9.20
2023-12-26T19:52:54.588Z,8.00
2023-12-26T19:55:23.628Z,6.80
2023-12-26T19:57:53.052Z,9.90
2023-12-26T20:00:21.049Z,7.80
2023-12-26T20:02:48.297Z,7.80
2023-12-26T20:05:16.294Z,9.30
2023-12-26T20:07:46.228Z,7.80
2023-12-26T20:10:13.944Z,9.10
2023-12-26T20:12:41.386Z,7.60
2023-12-26T20:15:09.546Z,7.50
2023-12-26T20:17:36.979Z,7.40
2023-12-26T20:20:06.102Z,7.30
2023-12-26T20:22:33.378Z,7.20
2023-12-26T20:25:00.982Z,7.10
2023-12-26T20:27:28.303Z,7.60
2023-12-26T20:29:56.004Z,7.90
2023-12-26T20:32:24.778Z,8.40
2023-12-26T20:34:52.509Z,6.10
2023-12-26T20:37:19.887Z,8.10
2023-12-26T20:39:47.573Z,6.10
2023-12-26T20:42:16.329Z,6.40
2023-12-26T20:44:47.366Z,6.30
2023-12-26T20:47:14.686Z,7.50
2023-12-26T20:49:42.383Z,8.30
2023-12-26T20:52:09.769Z,8.10
2023-12-26T20:54:37.433Z,6.20
2023-12-26T20:57:04.942Z,6.30
2023-12-26T20:59:32.777Z,5.80
2023-12-26T21:02:00.160Z,7.60
2023-12-26T21:04:27.928Z,7.50
2023-12-26T21:06:55.309Z,6.30
2023-12-26T21:09:22.800Z,6.40
2023-12-26T21:11:53.864Z,6.60
2023-12-26T21:14:21.627Z,5.30
2023-12-26T21:16:48.872Z,6.50
2023-12-26T21:19:16.675Z,7.40
2023-12-26T21:21:44.027Z,6.90
2023-12-26T21:24:11.917Z,6.00
2023-12-26T21:26:45.397Z,5.10
2023-12-26T21:29:14.650Z,5.20
2023-12-26T21:31:42.970Z,5.00
2023-12-26T21:34:11.017Z,4.70
2023-12-26T21:36:38.501Z,6.30
2023-12-26T21:39:07.675Z,6.50
2023-12-26T21:41:40.496Z,6.80
2023-12-26T21:44:08.057Z,4.50
2023-12-26T21:46:35.366Z,6.70
2023-12-26T21:49:04.205Z,4.50
2023-12-26T21:51:32.856Z,6.00
2023-12-26T21:54:00.538Z,6.10
2023-12-26T21:56:27.957Z,4.40
2023-12-26T21:58:56.031Z,5.30
2023-12-26T22:01:24.460Z,5.30
2023-12-26T22:03:52.310Z,4.40
2023-12-26T22:06:19.634Z,4.30
2023-12-26T22:08:49.285Z,4.30
2023-12-26T22:11:17.293Z,4.30
2023-12-26T22:13:44.807Z,4.10
2023-12-26T22:16:19.615Z,4.20
2023-12-26T22:18:48.834Z,4.20
2023-12-26T22:21:16.229Z,6.50
2023-12-26T22:23:45.705Z,5.90
2023-12-26T22:26:15.302Z,4.30
2023-12-26T22:28:43.155Z,5.50
2023-12-26T22:31:21.366Z,4.20
2023-12-26T22:33:50.326Z,6.20
2023-12-26T22:36:18.082Z,6.40
2023-12-26T22:38:45.697Z,4.20
2023-12-26T22:41:21.247Z,5.10
2023-12-26T22:43:49.730Z,4.20
2023-12-26T22:46:22.621Z,4.20
2023-12-26T22:48:54.011Z,5.30
2023-12-26T22:51:24.014Z,5.20
2023-12-26T22:53:51.827Z,5.60
2023-12-26T22:56:19.342Z,5.70
2023-12-26T22:58:46.967Z,5.00
2023-12-26T23:01:15.930Z,5.90
2023-12-26T23:03:44.202Z,4.10
2023-12-26T23:06:11.674Z,4.10
2023-12-26T23:08:39.306Z,5.70
2023-12-26T23:11:06.625Z,4.10
2023-12-26T23:13:34.118Z,4.90
2023-12-26T23:16:06.476Z,4.20
2023-12-26T23:18:34.360Z,4.20
2023-12-26T23:21:01.952Z,4.20
2023-12-26T23:23:29.525Z,4.30
2023-12-26T23:25:59.395Z,5.70
2023-12-26T23:28:27.063Z,6.40
2023-12-26T23:30:54.623Z,4.30
2023-12-26T23:33:22.223Z,4.30
2023-12-26T23:35:49.499Z,4.30
2023-12-26T23:38:17.019Z,6.50
2023-12-26T23:40:44.385Z,5.30
2023-12-26T23:43:11.983Z,6.40
2023-12-26T23:45:39.235Z,6.20
2023-12-26T23:48:07.661Z,4.40
2023-12-26T23:50:34.988Z,4.20
2023-12-26T23:53:05.333Z,6.00
2023-12-26T23:55:33.234Z,4.30
2023-12-26T23:58:00.957Z,4.30
